Terminal Aerodrome Forecast
Issued by NWS

Home | Current Version | Previous Version | Text Only | Print | Product List | Glossary On
Versions: 1 2 3 4 5 6 7 8 9 10 11 12 13 14 15 16 17 18 19 20 21 22 23 24 25 26 27
000
FTUS41 KBTV 232333
TAFPBG
TAF
KPBG 232333Z 2400/2424 VRB03KT P6SM BKN050
     FM241000 16010KT 5SM -RA OVC035
     FM241300 15012KT 3SM RA BR OVC008
     FM241700 16010KT 6SM BR OVC010=

USA.gov is the U.S. government's official web portal to all federal, state and local government web resources and services.